Bookmark and Share
Track history (hours):
 

Challenge Peak

Last reported at 2014-Apr-03 18:31 UTC. Time now 2014-Apr-20 19:00 UTC.
Position S 38°20' E 138°54'.
Warning: this ship's position is 17 days out of date.

Length 182 m; draft 9.3 m.

Type: Tanker. MMSI: 566433000.

NotesDate/timePositionNaut miles runAvg speedWind from/ knotsBaromVisibWave heightAir tempDewpointWater temp
2014-Apr-03 18:31S 38°20' E 138°54'9 9.4
2014-Apr-03 17:33S 38°25' E 139°03'1110.4
2014-Apr-03 16:32S 38°27' E 139°17'2110.5
2014-Apr-03 14:33S 38°31' E 139°43'3410.7
2014-Apr-03 11:23S 38°37' E 140°25'910.7
2014-Apr-03 10:33S 38°39' E 140°37'1111.4
2014-Apr-03 09:33S 38°41' E 140°51'1010.5
2014-Apr-03 08:33S 38°42' E 141°04'1110.5
2014-Apr-03 07:32S 38°44' E 141°18'1010.1
2014-Apr-03 06:33S 38°46' E 141°30'1010.0
2014-Apr-03 05:33S 38°48' E 141°43'1111.0
2014-Apr-03 04:33S 38°50' E 141°57'10 9.7
2014-Apr-03 03:33S 38°52' E 142°09'10 9.9
2014-Apr-03 02:33S 38°53' E 142°22'118 8.9
2014-Apr-02 13:19S 38°19' E 144°46'7 9.6
2014-Apr-02 12:33S 38°16' E 144°55'1414.3
2014-Apr-02 11:33S 38°02' E 144°55'1211.5
2014-Apr-02 10:33S 37°50' E 144°54'1 0.7
2014-Apr-02 09:25S 37°49' E 144°54'0 0.0
2014-Apr-02 08:31S 37°49' E 144°54'0 0.0
2014-Apr-02 03:31S 37°49' E 144°54'0 0.0
2014-Apr-02 02:25S 37°49' E 144°54'0 0.0
2014-Apr-02 01:31S 37°49' E 144°54'0 0.0
2014-Apr-02 00:25S 37°49' E 144°54'0 0.0
2014-Apr-01 23:31S 37°49' E 144°54'0 0.0
2014-Apr-01 22:25S 37°49' E 144°54'0 0.0
2014-Apr-01 21:25S 37°49' E 144°54'0 0.0
2014-Apr-01 20:25S 37°49' E 144°54'0 0.0
2014-Apr-01 19:31S 37°49' E 144°54'0 0.0
2014-Apr-01 18:31S 37°49' E 144°54'0 0.0
2014-Apr-01 17:31S 37°49' E 144°54'0 0.0
2014-Apr-01 16:31S 37°49' E 144°54'0 0.0
2014-Apr-01 15:25S 37°49' E 144°54'0 0.0
2014-Apr-01 14:31S 37°49' E 144°54'0 0.0
2014-Apr-01 13:31S 37°49' E 144°54'0 0.0
2014-Apr-01 12:31S 37°49' E 144°54'0 0.0
2014-Apr-01 11:31S 37°49' E 144°54'0 0.0
2014-Apr-01 10:31S 37°49' E 144°54'0 0.0
2014-Apr-01 09:31S 37°49' E 144°54'0 0.0
2014-Apr-01 08:31S 37°49' E 144°54'0 0.0
2014-Apr-01 07:31S 37°49' E 144°54'0 0.0
2014-Apr-01 06:31S 37°49' E 144°54'0 0.0
2014-Apr-01 05:31S 37°49' E 144°54'0 0.0
2014-Apr-01 04:31S 37°49' E 144°54'0 0.1
2014-Apr-01 03:33S 37°49' E 144°54'3 3.1
2014-Apr-01 02:34S 37°52' E 144°56'6 5.6
2014-Apr-01 01:34S 37°58' E 144°53'0 0.1
2014-Apr-01 00:32S 37°58' E 144°53'0 0.0
2014-Mar-31 23:32S 37°58' E 144°53'0 0.0
2014-Mar-31 22:32S 37°58' E 144°53'0 0.0
2014-Mar-31 21:32S 37°58' E 144°53'0 0.0
2014-Mar-31 20:32S 37°58' E 144°53'0 0.0
2014-Mar-31 19:32S 37°58' E 144°53'0 0.0
2014-Mar-31 18:32S 37°58' E 144°53'0 0.0
2014-Mar-31 17:32S 37°58' E 144°53'0 0.0
2014-Mar-31 16:32S 37°58' E 144°53'0 0.1
2014-Mar-31 15:32S 37°58' E 144°53'0 0.1
2014-Mar-31 14:32S 37°58' E 144°53'0 0.0
2014-Mar-31 13:20S 37°58' E 144°53'0 0.0
2014-Mar-31 12:26S 37°58' E 144°53'0 0.1
2014-Mar-31 11:32S 37°58' E 144°53'0 0.1
2014-Mar-31 10:26S 37°58' E 144°53'0 0.2
2014-Mar-31 09:32S 37°58' E 144°53'0 0.0
2014-Mar-31 08:32S 37°58' E 144°53'0 0.1
2014-Mar-31 07:32S 37°58' E 144°53'0 0.0
2014-Mar-31 06:26S 37°58' E 144°53'0 0.0
2014-Mar-31 05:32S 37°58' E 144°53'0 0.0
2014-Mar-31 04:32S 37°58' E 144°53'0 0.0
2014-Mar-31 03:26S 37°58' E 144°53'0 0.0
2014-Mar-31 02:32S 37°58' E 144°53'0 0.0
2014-Mar-31 01:32S 37°58' E 144°53'0 0.0
2014-Mar-31 00:32S 37°58' E 144°53'0 0.1
2014-Mar-30 23:32S 37°58' E 144°53'0 0.0
2014-Mar-30 22:32S 37°58' E 144°53'0 0.0
2014-Mar-30 21:32S 37°58' E 144°53'0 0.0
2014-Mar-30 20:32S 37°58' E 144°53'0 0.0
2014-Mar-30 19:32S 37°58' E 144°53'0 0.0
2014-Mar-30 18:32S 37°58' E 144°53'0 0.0
2014-Mar-30 17:26S 37°58' E 144°53'0 0.1
2014-Mar-30 16:32S 37°58' E 144°53'0 0.1
2014-Mar-30 15:32S 37°58' E 144°53'0 0.1
2014-Mar-30 14:26S 37°58' E 144°53'0 0.2
2014-Mar-30 13:32S 37°58' E 144°53'0 0.0
2014-Mar-30 12:26S 37°58' E 144°53'0 0.0
2014-Mar-30 11:32S 37°58' E 144°53'0 0.0
2014-Mar-30 10:20S 37°57' E 144°53'0 0.0
2014-Mar-30 09:32S 37°58' E 144°53'0 0.1
2014-Mar-30 08:32S 37°57' E 144°53'0 0.0
2014-Mar-30 07:32S 37°57' E 144°53'0 0.0
2014-Mar-30 06:26S 37°57' E 144°53'0 0.0
2014-Mar-30 05:32S 37°57' E 144°53'0 0.0
2014-Mar-30 04:32S 37°57' E 144°53'0 0.0
2014-Mar-30 03:32S 37°57' E 144°53'0 0.0
2014-Mar-30 02:32S 37°58' E 144°53'0 0.1
2014-Mar-30 01:32S 37°58' E 144°53'0 0.1
2014-Mar-30 00:32S 37°58' E 144°53'0 0.1
2014-Mar-29 23:32S 37°58' E 144°53'0 0.1
2014-Mar-29 22:32S 37°58' E 144°53'0 0.1
2014-Mar-29 21:32S 37°58' E 144°53'0 0.0
2014-Mar-29 20:26S 37°58' E 144°53'0 0.1
2014-Mar-29 19:32S 37°58' E 144°53'0 0.0
2014-Mar-29 18:32S 37°58' E 144°53'0 0.1
2014-Mar-29 17:32S 37°58' E 144°53'0 0.1
2014-Mar-29 16:32S 37°58' E 144°53'0 0.0
2014-Mar-29 15:32S 37°58' E 144°53'0 0.5
2014-Mar-29 14:33S 37°58' E 144°53'1110.9
2014-Mar-29 13:34S 38°09' E 144°55'9210.1
2014-Mar-29 04:30S 39°02' E 143°20'1312.1
2014-Mar-29 03:23S 39°00' E 143°03'1112.2
2014-Mar-29 02:31S 38°58' E 142°49'2813.4
2014-Mar-29 00:24S 38°54' E 142°14'1314.2
2014-Mar-28 23:31S 38°52' E 141°58'1212.2
2014-Mar-28 22:30S 38°50' E 141°42'1212.1
2014-Mar-28 21:30S 38°48' E 141°27'1212.1
2014-Mar-28 20:32S 38°46' E 141°12'1312.4
2014-Mar-28 19:31S 38°44' E 140°56'1412.2
2014-Mar-28 18:23S 38°42' E 140°38'1212.1
2014-Mar-28 17:25S 38°40' E 140°24'1112.3
2014-Mar-28 16:31S 38°38' E 140°10'1312.5
2014-Mar-28 15:28S 38°36' E 139°53'1312.2
2014-Mar-28 14:25S 38°34' E 139°37'1512.4
2014-Mar-28 13:11S 38°31' E 139°18'912.5
2014-Mar-28 12:28S 38°30' E 139°06'  

Dump ship's entire track history

sailing weather and tide predictions

Challenge Peak — 9V9589 — position and weather